Time;durP1;ratioP1;P1;durP2;ratioP2;P2;SDS_P1;SDS_P2;PMS_P1;PMS_P2;Temp;Humidity;BMP_temperature;BMP_pressure;BME280_temperature;BME280_humidity;BME280_pressure;Samples;Min_cycle;Max_cycle;Signal;HPM_P1;HPM_P2
2021/01/29 00:07:56;;;;;;;0.90;0.60;;;;;;;;;;5053331;28;20732;-79
2021/01/29 00:10:22;;;;;;;1.43;0.60;;;;;;;;;;5053251;28;20410;-79
2021/01/29 00:12:48;;;;;;;2.50;0.40;;;;;;;;;;5053044;28;20472;-79
2021/01/29 00:15:17;;;;;;;1.00;0.43;;;;;;;;;;5053117;28;20886;-79
2021/01/29 00:17:43;;;;;;;0.53;0.47;;;;;;;;;;5053142;28;20576;-79
2021/01/29 00:20:11;;;;;;;0.50;0.40;;;;;;;;;;5053111;28;20502;-79
2021/01/29 00:22:37;;;;;;;0.60;0.50;;;;;;;;;;5053130;28;20917;-79
2021/01/29 00:25:10;;;;;;;0.60;0.40;;;;;;;;;;5052904;28;20409;-78
2021/01/29 00:27:36;;;;;;;0.50;0.30;;;;;;;;;;5055408;28;20420;-78
2021/01/29 00:30:04;;;;;;;2.10;0.77;;;;;;;;;;5061500;28;20502;-78
2021/01/29 00:32:30;;;;;;;0.90;0.90;;;;;;;;;;5053151;28;20472;-78
2021/01/29 00:34:56;;;;;;;5.60;0.80;;;;;;;;;;5052297;28;20450;-78
2021/01/29 00:37:21;;;;;;;2.13;0.70;;;;;;;;;;5051731;28;20440;-78
2021/01/29 00:39:47;;;;;;;1.10;0.70;;;;;;;;;;5052812;28;20467;-79
2021/01/29 00:42:13;;;;;;;0.97;0.70;;;;;;;;;;5052519;28;20549;-80
2021/01/29 00:44:39;;;;;;;1.77;0.40;;;;;;;;;;5052761;28;20811;-80
2021/01/29 00:47:05;;;;;;;0.63;0.60;;;;;;;;;;5052749;28;20423;-78
2021/01/29 00:52:35;;;;;;;0.70;0.57;;;;;;;;;;5052576;28;20477;-79
2021/01/29 00:55:01;;;;;;;0.63;0.63;;;;;;;;;;5052647;28;20882;-78
2021/01/29 00:57:27;;;;;;;0.60;0.60;;;;;;;;;;5052947;28;20451;-79
2021/01/29 00:59:53;;;;;;;1.37;0.80;;;;;;;;;;5052821;28;20417;-78
2021/01/29 01:02:19;;;;;;;1.40;0.70;;;;;;;;;;5052617;28;20428;-79
2021/01/29 01:07:49;;;;;;;1.40;0.57;;;;;;;;;;5052720;28;20443;-80
2021/01/29 01:10:15;;;;;;;1.00;0.97;;;;;;;;;;5052509;28;20901;-79
2021/01/29 01:12:41;;;;;;;0.90;0.73;;;;;;;;;;5034525;28;20520;-79
2021/01/29 01:15:08;;;;;;;1.00;0.80;;;;;;;;;;5052765;28;20416;-79
2021/01/29 01:17:34;;;;;;;1.10;0.90;;;;;;;;;;5052712;28;20410;-79
2021/01/29 01:23:04;;;;;;;0.73;0.73;;;;;;;;;;5052617;28;20518;-79
2021/01/29 01:25:31;;;;;;;0.90;0.60;;;;;;;;;;5034076;28;20436;-79
2021/01/29 01:27:57;;;;;;;1.00;0.80;;;;;;;;;;5052759;28;20419;-79
2021/01/29 01:30:28;;;;;;;1.00;0.90;;;;;;;;;;5052152;28;20425;-79
2021/01/29 01:38:42;;;;;;;0.87;0.60;;;;;;;;;;5052137;28;20456;-80
2021/01/29 01:41:08;;;;;;;1.13;0.73;;;;;;;;;;5052091;28;20755;-80
2021/01/29 01:43:34;;;;;;;0.70;0.60;;;;;;;;;;5052271;28;20441;-79
2021/01/29 01:46:03;;;;;;;1.70;0.90;;;;;;;;;;5052172;28;20502;-80
2021/01/29 01:48:29;;;;;;;1.20;0.80;;;;;;;;;;5055186;28;20776;-80
2021/01/29 01:50:55;;;;;;;0.90;0.90;;;;;;;;;;5055720;28;20454;-81
2021/01/29 01:53:30;;;;;;;1.17;0.67;;;;;;;;;;5055677;28;20422;-78
2021/01/29 01:56:19;;;;;;;0.93;0.60;;;;;;;;;;5055451;28;20472;-79
2021/01/29 01:58:48;;;;;;;0.60;0.60;;;;;;;;;;5042667;28;20430;-78
2021/01/29 02:01:14;;;;;;;0.70;0.70;;;;;;;;;;5055531;28;20467;-79
2021/01/29 02:03:40;;;;;;;3.00;0.90;;;;;;;;;;5055495;28;20407;-79
2021/01/29 02:06:06;;;;;;;0.40;0.40;;;;;;;;;;5055493;28;20906;-79
2021/01/29 02:08:35;;;;;;;0.80;0.80;;;;;;;;;;5055620;28;20412;-79
2021/01/29 02:11:01;;;;;;;0.83;0.60;;;;;;;;;;5055558;28;20415;-79
2021/01/29 02:13:27;;;;;;;0.63;0.40;;;;;;;;;;5046972;28;20474;-78
2021/01/29 02:15:55;;;;;;;0.77;0.50;;;;;;;;;;5055774;28;20419;-78
2021/01/29 02:18:21;;;;;;;0.90;0.67;;;;;;;;;;5055513;28;20404;-79
2021/01/29 02:21:10;;;;;;;0.50;0.27;;;;;;;;;;5055239;28;20516;-79
2021/01/29 02:23:52;;;;;;;0.50;0.40;;;;;;;;;;5009079;28;20796;-78
2021/01/29 02:26:21;;;;;;;1.00;0.80;;;;;;;;;;5055257;28;20408;-79
2021/01/29 02:28:54;;;;;;;0.50;0.40;;;;;;;;;;5055263;28;20892;-80
2021/01/29 02:31:39;;;;;;;0.53;0.50;;;;;;;;;;5055114;28;20411;-79
2021/01/29 02:34:14;;;;;;;0.50;0.50;;;;;;;;;;5055185;28;20409;-78
2021/01/29 02:36:46;;;;;;;1.23;0.33;;;;;;;;;;5037223;28;20517;-79
2021/01/29 02:39:18;;;;;;;0.50;0.50;;;;;;;;;;5054948;28;20404;-79
2021/01/29 02:41:57;;;;;;;0.93;0.50;;;;;;;;;;5054756;28;20822;-79
2021/01/29 02:44:37;;;;;;;0.40;0.40;;;;;;;;;;5055082;28;20410;-79
2021/01/29 02:47:19;;;;;;;0.30;0.30;;;;;;;;;;5054650;28;20414;-79
2021/01/29 02:49:45;;;;;;;0.30;0.30;;;;;;;;;;5054950;28;20932;-80
2021/01/29 02:52:20;;;;;;;0.60;0.60;;;;;;;;;;5054786;28;20423;-80
2021/01/29 02:54:55;;;;;;;0.60;0.40;;;;;;;;;;5054826;28;20475;-79
2021/01/29 02:57:26;;;;;;;0.60;0.40;;;;;;;;;;5054886;28;20499;-80
2021/01/29 02:59:56;;;;;;;0.40;0.40;;;;;;;;;;5054215;28;20893;-78
2021/01/29 03:02:31;;;;;;;2.83;0.63;;;;;;;;;;5054291;28;20522;-79
2021/01/29 03:05:15;;;;;;;0.50;0.40;;;;;;;;;;5054248;28;20419;-80
2021/01/29 03:08:01;;;;;;;1.10;0.27;;;;;;;;;;5054186;28;20408;-79
2021/01/29 03:10:27;;;;;;;0.47;0.37;;;;;;;;;;5054236;28;20411;-79
2021/01/29 03:12:57;;;;;;;0.40;0.40;;;;;;;;;;5053769;28;20473;-80
2021/01/29 03:15:28;;;;;;;0.40;0.37;;;;;;;;;;5054184;28;20416;-79
2021/01/29 03:18:02;;;;;;;0.80;0.80;;;;;;;;;;5054322;28;20419;-80
2021/01/29 03:20:34;;;;;;;0.40;0.40;;;;;;;;;;5053885;28;20459;-79
2021/01/29 03:23:03;;;;;;;0.60;0.60;;;;;;;;;;5054024;28;20419;-79
2021/01/29 03:25:35;;;;;;;0.60;0.60;;;;;;;;;;5053859;28;20441;-79
2021/01/29 03:28:05;;;;;;;0.63;0.40;;;;;;;;;;5054216;28;20502;-79
2021/01/29 03:30:32;;;;;;;0.40;0.40;;;;;;;;;;5053964;28;20411;-79
2021/01/29 03:32:59;;;;;;;0.37;0.30;;;;;;;;;;5035889;28;20987;-80
2021/01/29 03:35:31;;;;;;;0.33;0.33;;;;;;;;;;5053718;28;20456;-80
2021/01/29 03:38:14;;;;;;;2.27;0.53;;;;;;;;;;5035942;28;20430;-79
2021/01/29 03:40:41;;;;;;;0.67;0.40;;;;;;;;;;5053580;28;20809;-79
2021/01/29 03:43:10;;;;;;;0.90;0.50;;;;;;;;;;5053727;28;20421;-80
2021/01/29 03:45:40;;;;;;;0.40;0.40;;;;;;;;;;5053763;28;20440;-79
2021/01/29 03:48:05;;;;;;;1.03;0.50;;;;;;;;;;5053533;28;20412;-79
2021/01/29 03:50:46;;;;;;;1.03;0.57;;;;;;;;;;5053847;28;20750;-79
2021/01/29 03:53:31;;;;;;;0.47;0.47;;;;;;;;;;5063518;28;20929;-79
2021/01/29 03:56:06;;;;;;;0.90;0.50;;;;;;;;;;5053525;28;20814;-79
2021/01/29 03:58:35;;;;;;;0.50;0.40;;;;;;;;;;5053186;28;20431;-78
2021/01/29 04:01:01;;;;;;;2.40;0.57;;;;;;;;;;5053085;28;20467;-79
2021/01/29 04:03:42;;;;;;;0.80;0.50;;;;;;;;;;5053173;28;20404;-79
2021/01/29 04:06:11;;;;;;;0.53;0.43;;;;;;;;;;5053102;28;20407;-79
2021/01/29 04:08:40;;;;;;;0.70;0.50;;;;;;;;;;5052858;28;20415;-79
2021/01/29 04:11:08;;;;;;;0.40;0.30;;;;;;;;;;5052163;28;20771;-79
2021/01/29 04:13:52;;;;;;;0.60;0.60;;;;;;;;;;5053161;28;20463;-79
2021/01/29 04:16:21;;;;;;;1.20;0.57;;;;;;;;;;5053027;28;20530;-77
2021/01/29 04:18:48;;;;;;;0.53;0.50;;;;;;;;;;5052896;28;20405;-80
2021/01/29 04:21:20;;;;;;;0.50;0.40;;;;;;;;;;5052809;28;20502;-79
2021/01/29 04:23:46;;;;;;;0.47;0.33;;;;;;;;;;5052738;28;20415;-78
2021/01/29 04:26:17;;;;;;;1.07;0.60;;;;;;;;;;5052884;28;20922;-79
2021/01/29 04:28:46;;;;;;;0.50;0.50;;;;;;;;;;5052637;28;20954;-79
2021/01/29 04:31:13;;;;;;;0.40;0.40;;;;;;;;;;5052810;28;20534;-79
2021/01/29 04:33:42;;;;;;;0.40;0.40;;;;;;;;;;5052770;28;20438;-79
2021/01/29 04:36:09;;;;;;;1.33;0.70;;;;;;;;;;5052688;28;20420;-80
2021/01/29 04:38:35;;;;;;;0.70;0.60;;;;;;;;;;5052701;28;20728;-80
2021/01/29 04:41:23;;;;;;;0.70;0.50;;;;;;;;;;5052706;28;20457;-79
2021/01/29 04:43:58;;;;;;;0.50;0.43;;;;;;;;;;5034846;28;20504;-79
2021/01/29 04:46:27;;;;;;;0.40;0.40;;;;;;;;;;5052657;28;20746;-79
2021/01/29 04:48:56;;;;;;;0.60;0.43;;;;;;;;;;5052863;28;20481;-79
2021/01/29 04:51:41;;;;;;;0.60;0.50;;;;;;;;;;5052607;28;20443;-78
2021/01/29 04:54:30;;;;;;;1.90;0.70;;;;;;;;;;5052612;28;20452;-79
2021/01/29 04:57:14;;;;;;;0.93;0.40;;;;;;;;;;5052227;28;20430;-79
2021/01/29 04:59:49;;;;;;;0.50;0.40;;;;;;;;;;5051679;28;20447;-78
2021/01/29 05:02:21;;;;;;;0.60;0.50;;;;;;;;;;5052309;28;20529;-79
2021/01/29 05:08:10;;;;;;;0.50;0.40;;;;;;;;;;5052238;28;20409;-79
2021/01/29 05:10:49;;;;;;;0.40;0.40;;;;;;;;;;5052092;28;20419;-79
2021/01/29 05:13:32;;;;;;;0.43;0.30;;;;;;;;;;5052229;28;20470;-79
2021/01/29 05:16:17;;;;;;;0.50;0.30;;;;;;;;;;5052344;28;20411;-79
2021/01/29 05:18:46;;;;;;;3.07;0.57;;;;;;;;;;5052293;28;20901;-79
2021/01/29 05:24:36;;;;;;;0.73;0.50;;;;;;;;;;5056260;28;20409;-79
2021/01/29 05:27:20;;;;;;;0.53;0.40;;;;;;;;;;5056209;28;20425;-79
2021/01/29 05:29:56;;;;;;;0.67;0.60;;;;;;;;;;5037405;28;20462;-79
2021/01/29 05:32:41;;;;;;;0.50;0.20;;;;;;;;;;5056051;28;20963;-79
2021/01/29 05:35:25;;;;;;;0.53;0.33;;;;;;;;;;5056120;28;20412;-79
2021/01/29 05:37:59;;;;;;;0.87;0.30;;;;;;;;;;5062431;28;20806;-79
2021/01/29 05:40:34;;;;;;;0.50;0.40;;;;;;;;;;5056026;28;20501;-78
2021/01/29 05:43:16;;;;;;;1.70;0.50;;;;;;;;;;5055944;28;20484;-78
2021/01/29 05:46:00;;;;;;;0.60;0.40;;;;;;;;;;5055742;28;20412;-79
2021/01/29 05:48:32;;;;;;;0.40;0.40;;;;;;;;;;5055918;28;20399;-79
2021/01/29 05:51:08;;;;;;;0.50;0.40;;;;;;;;;;5055433;28;20431;-78
2021/01/29 05:53:39;;;;;;;0.60;0.40;;;;;;;;;;5055631;28;20772;-78
2021/01/29 05:56:08;;;;;;;0.50;0.30;;;;;;;;;;5047633;28;20407;-79
2021/01/29 05:58:55;;;;;;;0.70;0.50;;;;;;;;;;5055634;28;20824;-79
2021/01/29 06:01:21;;;;;;;0.43;0.40;;;;;;;;;;5055598;28;20497;-80
2021/01/29 06:03:46;;;;;;;0.67;0.47;;;;;;;;;;5055561;28;20492;-80
2021/01/29 06:06:31;;;;;;;0.30;0.20;;;;;;;;;;5037488;28;20791;-80
2021/01/29 06:08:57;;;;;;;0.90;0.40;;;;;;;;;;5055314;28;20504;-79
2021/01/29 06:11:42;;;;;;;0.43;0.33;;;;;;;;;;5055203;28;20411;-80
2021/01/29 06:14:14;;;;;;;0.67;0.50;;;;;;;;;;5055292;28;20508;-79
2021/01/29 06:16:58;;;;;;;0.30;0.30;;;;;;;;;;5055197;28;20879;-79
2021/01/29 06:19:43;;;;;;;0.70;0.47;;;;;;;;;;5054952;28;20422;-78
2021/01/29 06:22:09;;;;;;;0.30;0.30;;;;;;;;;;5054987;28;20848;-79
2021/01/29 06:25:01;;;;;;;3.43;0.40;;;;;;;;;;5054800;28;20418;-78
2021/01/29 06:27:39;;;;;;;0.53;0.40;;;;;;;;;;5054932;28;20773;-80
2021/01/29 06:30:08;;;;;;;1.37;0.50;;;;;;;;;;5054599;28;20501;-78
2021/01/29 06:32:53;;;;;;;0.53;0.40;;;;;;;;;;5053791;28;20403;-78
2021/01/29 06:35:22;;;;;;;0.50;0.50;;;;;;;;;;5052176;28;20633;-78
2021/01/29 06:37:51;;;;;;;0.50;0.30;;;;;;;;;;5052811;28;20500;-80
2021/01/29 06:40:25;;;;;;;0.40;0.30;;;;;;;;;;5052913;28;20498;-78
2021/01/29 06:43:24;;;;;;;0.37;0.30;;;;;;;;;;5053936;28;20514;-79
2021/01/29 06:46:05;;;;;;;0.40;0.30;;;;;;;;;;4999037;28;20446;-80
2021/01/29 06:49:00;;;;;;;0.63;0.30;;;;;;;;;;5053354;28;20443;-78
2021/01/29 06:54:35;;;;;;;0.30;0.20;;;;;;;;;;5053000;28;20466;-78
2021/01/29 06:57:06;;;;;;;0.70;0.33;;;;;;;;;;5053353;28;20759;-79
2021/01/29 07:00:01;;;;;;;0.40;0.20;;;;;;;;;;5052962;28;20427;-79
2021/01/29 07:02:27;;;;;;;0.30;0.20;;;;;;;;;;5031994;28;20478;-79
2021/01/29 07:05:05;;;;;;;0.30;0.30;;;;;;;;;;5053143;28;20832;-80
2021/01/29 07:10:49;;;;;;;0.50;0.30;;;;;;;;;;5052315;28;20500;-81
2021/01/29 07:13:15;;;;;;;0.40;0.20;;;;;;;;;;5052733;28;20477;-79
2021/01/29 07:15:59;;;;;;;0.50;0.33;;;;;;;;;;5053902;28;20420;-79
2021/01/29 07:18:44;;;;;;;0.83;0.20;;;;;;;;;;5052583;28;20415;-79
2021/01/29 07:21:48;;;;;;;0.40;0.40;;;;;;;;;;5059374;28;20494;-79
2021/01/29 07:24:32;;;;;;;0.30;0.10;;;;;;;;;;4953775;29;20514;-79
2021/01/29 07:27:04;;;;;;;0.30;0.20;;;;;;;;;;4952856;29;20446;-82
2021/01/29 07:29:49;;;;;;;0.43;0.30;;;;;;;;;;4999497;28;20432;-81
2021/01/29 07:32:21;;;;;;;0.50;0.40;;;;;;;;;;5052412;28;20412;-80
2021/01/29 07:34:57;;;;;;;2.20;1.07;;;;;;;;;;5034754;28;20427;-75
2021/01/29 07:37:32;;;;;;;1.00;0.70;;;;;;;;;;5052301;28;20407;-75
2021/01/29 07:40:16;;;;;;;0.60;0.37;;;;;;;;;;5052350;28;20418;-75
2021/01/29 07:42:45;;;;;;;0.73;0.40;;;;;;;;;;5051939;28;20428;-75
2021/01/29 07:45:19;;;;;;;0.90;0.50;;;;;;;;;;5051797;28;20416;-76
2021/01/29 07:47:45;;;;;;;0.50;0.30;;;;;;;;;;5034008;28;20438;-76
2021/01/29 07:50:33;;;;;;;1.30;0.40;;;;;;;;;;5052004;28;20416;-75
2021/01/29 07:53:06;;;;;;;0.77;0.40;;;;;;;;;;5052175;28;20423;-76
2021/01/29 07:55:46;;;;;;;0.73;0.40;;;;;;;;;;5052139;28;20419;-75
2021/01/29 07:58:16;;;;;;;0.37;0.37;;;;;;;;;;5052251;28;20439;-75
2021/01/29 08:00:54;;;;;;;1.50;0.50;;;;;;;;;;5051953;28;20469;-74
2021/01/29 08:03:38;;;;;;;0.40;0.30;;;;;;;;;;5052154;28;20728;-76
2021/01/29 08:06:13;;;;;;;0.60;0.40;;;;;;;;;;5051839;28;20906;-76
2021/01/29 08:08:57;;;;;;;0.50;0.40;;;;;;;;;;5051565;28;20406;-75
2021/01/29 08:11:24;;;;;;;0.47;0.30;;;;;;;;;;5051171;28;20930;-76
2021/01/29 08:14:01;;;;;;;0.40;0.33;;;;;;;;;;5051316;28;20416;-77
2021/01/29 08:16:27;;;;;;;1.00;0.53;;;;;;;;;;5052047;28;20538;-76
2021/01/29 08:18:53;;;;;;;1.17;0.30;;;;;;;;;;5051878;28;20538;-76
2021/01/29 08:24:39;;;;;;;0.43;0.37;;;;;;;;;;5051451;28;20419;-77
2021/01/29 08:27:23;;;;;;;0.50;0.40;;;;;;;;;;5051808;28;20413;-77
2021/01/29 08:29:52;;;;;;;0.40;0.27;;;;;;;;;;5051733;28;20855;-78
2021/01/29 08:32:24;;;;;;;0.50;0.50;;;;;;;;;;5034012;28;20421;-77
2021/01/29 08:35:09;;;;;;;0.40;0.30;;;;;;;;;;5051432;28;20413;-77
2021/01/29 08:40:55;;;;;;;0.53;0.40;;;;;;;;;;5051017;28;20863;-76
2021/01/29 08:43:40;;;;;;;0.40;0.30;;;;;;;;;;5034266;28;20501;-78
2021/01/29 08:46:09;;;;;;;0.40;0.30;;;;;;;;;;5052588;28;20766;-80
2021/01/29 08:48:38;;;;;;;0.40;0.30;;;;;;;;;;5052449;28;20438;-80
2021/01/29 08:51:10;;;;;;;0.50;0.40;;;;;;;;;;5052715;28;20754;-80
2021/01/29 08:56:47;;;;;;;1.00;0.50;;;;;;;;;;5053610;28;20449;-79
2021/01/29 08:59:17;;;;;;;0.80;0.50;;;;;;;;;;5058520;28;20415;-82
2021/01/29 09:01:43;;;;;;;0.50;0.30;;;;;;;;;;5058951;28;20497;-80
2021/01/29 09:04:21;;;;;;;2.60;1.17;;;;;;;;;;5059114;28;20409;-81
2021/01/29 09:06:48;;;;;;;5.20;1.70;;;;;;;;;;5059056;28;20416;-80
2021/01/29 09:12:21;;;;;;;0.90;0.33;;;;;;;;;;5059032;28;20533;-79
2021/01/29 09:14:52;;;;;;;0.40;0.30;;;;;;;;;;5058976;28;20451;-79
2021/01/29 09:17:21;;;;;;;3.40;0.90;;;;;;;;;;5040272;28;20830;-79
2021/01/29 09:19:57;;;;;;;0.50;0.30;;;;;;;;;;5057668;28;20422;-78
2021/01/29 09:22:36;;;;;;;1.27;0.50;;;;;;;;;;5057541;28;20523;-80
2021/01/29 09:25:20;;;;;;;0.40;0.40;;;;;;;;;;5061188;28;20425;-78
2021/01/29 09:28:01;;;;;;;1.33;0.63;;;;;;;;;;5059852;28;20472;-79
2021/01/29 09:30:30;;;;;;;0.63;0.40;;;;;;;;;;5058299;28;20415;-79
2021/01/29 09:33:11;;;;;;;0.50;0.50;;;;;;;;;;5058180;28;20421;-80
2021/01/29 09:35:56;;;;;;;0.90;0.50;;;;;;;;;;5057915;28;20403;-82
2021/01/29 09:38:24;;;;;;;4.93;0.77;;;;;;;;;;5057759;28;20422;-80
2021/01/29 09:40:53;;;;;;;0.70;0.40;;;;;;;;;;5057911;28;20457;-79
2021/01/29 09:43:39;;;;;;;0.80;0.40;;;;;;;;;;5057935;28;20418;-82
2021/01/29 09:46:05;;;;;;;0.90;0.40;;;;;;;;;;5057495;28;20429;-81
2021/01/29 09:48:32;;;;;;;2.40;0.80;;;;;;;;;;5057764;28;20425;-79
2021/01/29 09:51:24;;;;;;;6.00;0.50;;;;;;;;;;5057598;28;20414;-80
2021/01/29 09:54:13;;;;;;;0.80;0.50;;;;;;;;;;5052446;28;20849;-82
2021/01/29 09:56:41;;;;;;;2.00;0.60;;;;;;;;;;5057758;28;20781;-79
2021/01/29 09:59:18;;;;;;;2.47;0.53;;;;;;;;;;5057706;28;20813;-81
2021/01/29 10:01:51;;;;;;;2.23;0.63;;;;;;;;;;5057634;28;20504;-79
2021/01/29 10:04:17;;;;;;;1.40;0.57;;;;;;;;;;5057132;28;20770;-82
2021/01/29 10:06:49;;;;;;;2.10;1.00;;;;;;;;;;5057613;28;20414;-81
2021/01/29 10:09:21;;;;;;;1.53;0.50;;;;;;;;;;5054173;28;20488;-81
2021/01/29 10:11:56;;;;;;;1.37;0.60;;;;;;;;;;5054372;28;20557;-80
2021/01/29 10:14:28;;;;;;;1.07;0.50;;;;;;;;;;5054467;28;20421;-80
2021/01/29 10:16:55;;;;;;;1.67;0.80;;;;;;;;;;5054073;28;20414;-81
2021/01/29 10:19:27;;;;;;;2.40;0.67;;;;;;;;;;5054190;28;20412;-80
2021/01/29 10:21:59;;;;;;;1.93;0.80;;;;;;;;;;5054151;28;20513;-81
2021/01/29 10:24:32;;;;;;;2.67;0.70;;;;;;;;;;5053859;28;20490;-81
2021/01/29 10:27:06;;;;;;;6.83;1.80;;;;;;;;;;5054299;28;20746;-79
2021/01/29 10:29:32;;;;;;;1.27;0.53;;;;;;;;;;5053865;28;20446;-79
2021/01/29 10:32:04;;;;;;;1.23;0.50;;;;;;;;;;5053738;28;20439;-79
2021/01/29 10:34:34;;;;;;;0.80;0.80;;;;;;;;;;5054104;28;20407;-80
2021/01/29 10:37:20;;;;;;;2.10;0.60;;;;;;;;;;5053624;28;20403;-80
2021/01/29 10:39:52;;;;;;;1.43;0.60;;;;;;;;;;5053467;28;20426;-80
2021/01/29 10:42:20;;;;;;;2.20;0.47;;;;;;;;;;5054008;28;20809;-82
2021/01/29 10:44:51;;;;;;;0.90;0.33;;;;;;;;;;5053598;28;20419;-81
2021/01/29 10:47:20;;;;;;;2.10;0.40;;;;;;;;;;5035869;28;20438;-80
2021/01/29 10:49:57;;;;;;;1.13;0.37;;;;;;;;;;5053528;28;20461;-80
2021/01/29 10:52:23;;;;;;;2.70;0.50;;;;;;;;;;5053411;28;20422;-81
2021/01/29 10:54:49;;;;;;;1.80;0.60;;;;;;;;;;5053450;28;20427;-81
2021/01/29 10:57:18;;;;;;;1.40;0.50;;;;;;;;;;5052499;28;20424;-82
2021/01/29 10:59:58;;;;;;;2.53;0.70;;;;;;;;;;5052005;28;20498;-83
2021/01/29 11:02:33;;;;;;;1.87;1.10;;;;;;;;;;5054232;28;20569;-80
2021/01/29 11:05:06;;;;;;;0.77;0.57;;;;;;;;;;5053357;28;20530;-80
2021/01/29 11:07:33;;;;;;;5.50;0.90;;;;;;;;;;5053219;28;20893;-79
2021/01/29 11:10:09;;;;;;;1.70;0.77;;;;;;;;;;5053084;28;20423;-78
2021/01/29 11:12:44;;;;;;;0.90;0.70;;;;;;;;;;5055785;28;20532;-79
2021/01/29 11:15:35;;;;;;;1.43;1.00;;;;;;;;;;5053631;28;20541;-79
2021/01/29 11:18:30;;;;;;;2.00;0.90;;;;;;;;;;5053277;28;20469;-79
2021/01/29 11:21:09;;;;;;;2.50;1.07;;;;;;;;;;5014141;28;20484;-78
2021/01/29 11:26:41;;;;;;;1.57;0.80;;;;;;;;;;5051463;28;20411;-79
2021/01/29 11:29:27;;;;;;;2.00;0.93;;;;;;;;;;5051565;28;20508;-80
2021/01/29 11:31:53;;;;;;;2.40;0.93;;;;;;;;;;5001533;28;20435;-78
2021/01/29 11:34:31;;;;;;;2.00;0.87;;;;;;;;;;5051801;28;20477;-79
2021/01/29 11:37:06;;;;;;;1.50;0.63;;;;;;;;;;5051389;28;20425;-78
2021/01/29 11:42:38;;;;;;;1.57;1.10;;;;;;;;;;5051380;28;20499;-79
2021/01/29 11:45:07;;;;;;;0.83;0.60;;;;;;;;;;5051251;28;20432;-79
2021/01/29 11:47:33;;;;;;;2.60;1.10;;;;;;;;;;5051454;28;20505;-79
2021/01/29 11:50:09;;;;;;;10.63;1.10;;;;;;;;;;5051083;28;20504;-80
2021/01/29 11:52:41;;;;;;;1.30;0.60;;;;;;;;;;5051154;28;20411;-79
2021/01/29 11:58:20;;;;;;;2.00;0.87;;;;;;;;;;5050812;28;20413;-80
2021/01/29 12:00:55;;;;;;;3.57;1.30;;;;;;;;;;5051120;28;20883;-80
2021/01/29 12:03:24;;;;;;;1.90;0.80;;;;;;;;;;5051228;28;20421;-80
2021/01/29 12:06:09;;;;;;;3.27;1.13;;;;;;;;;;5051339;28;20560;-81
2021/01/29 12:08:35;;;;;;;2.10;0.83;;;;;;;;;;5050948;28;20459;-82
2021/01/29 12:14:15;;;;;;;2.20;0.73;;;;;;;;;;5050907;28;20433;-81
2021/01/29 12:16:43;;;;;;;3.27;1.00;;;;;;;;;;5051110;28;20421;-83
2021/01/29 12:19:11;;;;;;;3.03;1.03;;;;;;;;;;5051120;28;20399;-82
2021/01/29 12:21:45;;;;;;;1.20;0.70;;;;;;;;;;5050902;28;20488;-82
2021/01/29 12:24:23;;;;;;;3.50;0.90;;;;;;;;;;5050543;28;20962;-81
2021/01/29 12:27:07;;;;;;;6.53;1.23;;;;;;;;;;5051933;28;20418;-81
2021/01/29 12:29:52;;;;;;;5.30;2.20;;;;;;;;;;5052236;28;20418;-81
2021/01/29 12:32:21;;;;;;;5.20;1.30;;;;;;;;;;5050761;28;20416;-82
2021/01/29 12:35:07;;;;;;;2.30;1.20;;;;;;;;;;5051280;28;20438;-79
2021/01/29 12:37:37;;;;;;;1.77;0.90;;;;;;;;;;5051429;28;20414;-79
2021/01/29 12:40:12;;;;;;;2.03;1.13;;;;;;;;;;5051528;28;20559;-79
2021/01/29 12:42:41;;;;;;;4.43;1.67;;;;;;;;;;5034022;28;20507;-81
2021/01/29 12:45:18;;;;;;;2.97;0.80;;;;;;;;;;5051892;28;20438;-82
2021/01/29 12:47:48;;;;;;;1.40;0.70;;;;;;;;;;5051804;28;20424;-82
2021/01/29 12:50:33;;;;;;;3.77;0.70;;;;;;;;;;5052009;28;20412;-82
2021/01/29 12:53:12;;;;;;;1.63;0.70;;;;;;;;;;5033786;28;20430;-79
2021/01/29 12:55:49;;;;;;;0.73;0.40;;;;;;;;;;5051454;28;20410;-79
2021/01/29 12:58:16;;;;;;;1.77;0.60;;;;;;;;;;5051802;28;20425;-83
2021/01/29 13:00:44;;;;;;;1.53;0.70;;;;;;;;;;5051600;28;20468;-81
2021/01/29 13:03:16;;;;;;;2.27;0.40;;;;;;;;;;5057945;28;20425;-81
2021/01/29 13:05:47;;;;;;;1.50;0.50;;;;;;;;;;5052356;28;20414;-82
2021/01/29 13:08:28;;;;;;;0.60;0.40;;;;;;;;;;5052189;28;20399;-79
2021/01/29 13:11:07;;;;;;;3.13;0.50;;;;;;;;;;5052660;28;20693;-82
2021/01/29 13:13:46;;;;;;;1.43;0.77;;;;;;;;;;5034540;28;20481;-81
2021/01/29 13:16:35;;;;;;;0.50;0.40;;;;;;;;;;5052618;28;20419;-80
2021/01/29 13:19:05;;;;;;;2.00;0.50;;;;;;;;;;5052308;28;20407;-80
2021/01/29 13:21:36;;;;;;;0.67;0.50;;;;;;;;;;5049709;28;21109;-81
2021/01/29 13:24:04;;;;;;;2.43;0.93;;;;;;;;;;5049483;28;20410;-81
2021/01/29 13:26:40;;;;;;;0.80;0.50;;;;;;;;;;5051430;28;20414;-82
2021/01/29 13:29:16;;;;;;;1.87;0.60;;;;;;;;;;5051363;28;21052;-81
2021/01/29 13:31:42;;;;;;;1.70;0.93;;;;;;;;;;5051484;28;20548;-82
2021/01/29 13:34:17;;;;;;;1.10;0.60;;;;;;;;;;5050970;28;20947;-83
2021/01/29 13:36:58;;;;;;;1.20;0.70;;;;;;;;;;5052296;28;20547;-82
2021/01/29 13:39:25;;;;;;;0.53;0.43;;;;;;;;;;5050938;28;20761;-82
2021/01/29 13:41:56;;;;;;;0.73;0.53;;;;;;;;;;5051100;28;20469;-82
2021/01/29 13:44:22;;;;;;;1.60;0.60;;;;;;;;;;5053933;28;20776;-81
2021/01/29 13:46:52;;;;;;;1.90;0.70;;;;;;;;;;5054754;28;20410;-83
2021/01/29 13:49:29;;;;;;;1.23;0.70;;;;;;;;;;5054683;28;20418;-81
2021/01/29 13:51:55;;;;;;;3.00;0.60;;;;;;;;;;5054531;28;20420;-81
2021/01/29 13:54:29;;;;;;;0.93;0.53;;;;;;;;;;5054482;28;20411;-81
2021/01/29 13:56:56;;;;;;;0.80;0.40;;;;;;;;;;5054968;28;20833;-82
2021/01/29 13:59:36;;;;;;;1.63;0.50;;;;;;;;;;5054573;28;20832;-82
2021/01/29 14:02:20;;;;;;;2.10;0.70;;;;;;;;;;5054397;28;20500;-81
2021/01/29 14:04:48;;;;;;;0.40;0.40;;;;;;;;;;5054288;28;20761;-81
2021/01/29 14:07:14;;;;;;;0.87;0.60;;;;;;;;;;5054390;28;20464;-82
2021/01/29 14:09:40;;;;;;;0.60;0.40;;;;;;;;;;5036313;28;20461;-82
2021/01/29 14:12:25;;;;;;;1.77;0.40;;;;;;;;;;5054356;28;20469;-82
2021/01/29 14:14:59;;;;;;;1.37;0.73;;;;;;;;;;5054132;28;20900;-81
2021/01/29 14:17:32;;;;;;;1.00;0.60;;;;;;;;;;5054420;28;20420;-80
2021/01/29 14:20:13;;;;;;;1.07;0.70;;;;;;;;;;5054902;28;20754;-83
2021/01/29 14:22:49;;;;;;;2.50;0.73;;;;;;;;;;5054061;28;21077;-82
2021/01/29 14:25:14;;;;;;;1.33;0.60;;;;;;;;;;5053734;28;20501;-83
2021/01/29 14:28:10;;;;;;;1.47;0.70;;;;;;;;;;5053903;28;20824;-81
2021/01/29 14:30:42;;;;;;;0.60;0.47;;;;;;;;;;4966479;28;20526;-83
2021/01/29 14:33:08;;;;;;;3.63;2.17;;;;;;;;;;5053888;28;20442;-81
2021/01/29 14:35:44;;;;;;;0.80;0.47;;;;;;;;;;5054057;28;20721;-81
2021/01/29 14:38:28;;;;;;;0.63;0.37;;;;;;;;;;5054109;28;20877;-82
2021/01/29 14:44:10;;;;;;;3.03;0.70;;;;;;;;;;5053933;28;20422;-81
2021/01/29 14:46:53;;;;;;;1.27;0.50;;;;;;;;;;5053845;28;20426;-82
2021/01/29 14:49:26;;;;;;;1.13;0.50;;;;;;;;;;5053999;28;20501;-82
2021/01/29 14:51:53;;;;;;;1.73;0.87;;;;;;;;;;5059125;28;20951;-81
2021/01/29 14:54:26;;;;;;;0.57;0.40;;;;;;;;;;5056357;28;20407;-81
2021/01/29 14:59:55;;;;;;;1.50;0.40;;;;;;;;;;5053311;28;20413;-81
2021/01/29 15:02:30;;;;;;;3.73;0.50;;;;;;;;;;5053406;28;20465;-81
2021/01/29 15:04:58;;;;;;;1.83;0.50;;;;;;;;;;5053366;28;20448;-82
2021/01/29 15:07:36;;;;;;;2.97;1.47;;;;;;;;;;5053397;28;20423;-82
2021/01/29 15:10:04;;;;;;;1.97;0.80;;;;;;;;;;5053313;28;20417;-82
2021/01/29 15:15:37;;;;;;;1.60;0.70;;;;;;;;;;5053154;28;20936;-80
2021/01/29 15:18:23;;;;;;;1.07;0.57;;;;;;;;;;5053108;28;20423;-80
2021/01/29 15:20:51;;;;;;;2.30;0.50;;;;;;;;;;5053580;28;20463;-79
2021/01/29 15:23:22;;;;;;;2.57;1.17;;;;;;;;;;5053151;28;20454;-79
2021/01/29 15:25:51;;;;;;;1.90;1.07;;;;;;;;;;5052570;28;20848;-79
2021/01/29 15:31:20;;;;;;;1.90;1.03;;;;;;;;;;5053031;28;20874;-80
2021/01/29 15:33:48;;;;;;;0.70;0.50;;;;;;;;;;5052694;28;20411;-80
2021/01/29 15:36:14;;;;;;;2.00;0.60;;;;;;;;;;5052560;28;20427;-80
2021/01/29 15:38:40;;;;;;;1.50;0.80;;;;;;;;;;5052485;28;20415;-80
2021/01/29 15:41:25;;;;;;;1.53;0.80;;;;;;;;;;5052525;28;20470;-79
2021/01/29 15:43:52;;;;;;;3.30;0.73;;;;;;;;;;5052470;28;20509;-80
2021/01/29 15:46:37;;;;;;;2.43;0.60;;;;;;;;;;5052263;28;20399;-79
2021/01/29 15:49:06;;;;;;;3.57;0.50;;;;;;;;;;5052297;28;20480;-79
2021/01/29 15:51:47;;;;;;;1.50;0.70;;;;;;;;;;5052581;28;20773;-80
2021/01/29 15:54:13;;;;;;;1.50;0.60;;;;;;;;;;5052317;28;20742;-82
2021/01/29 15:56:41;;;;;;;1.47;0.70;;;;;;;;;;5052402;28;20411;-79
2021/01/29 15:59:10;;;;;;;2.40;0.60;;;;;;;;;;5034080;28;20445;-79
2021/01/29 16:01:38;;;;;;;1.10;0.67;;;;;;;;;;5052110;28;20633;-80
2021/01/29 16:04:05;;;;;;;1.27;0.80;;;;;;;;;;5052347;28;20407;-80
2021/01/29 16:06:42;;;;;;;1.80;0.70;;;;;;;;;;5034074;28;20441;-81
2021/01/29 16:09:10;;;;;;;1.43;0.73;;;;;;;;;;5051735;28;20845;-81
2021/01/29 16:11:36;;;;;;;1.53;0.57;;;;;;;;;;5051759;28;20420;-80
2021/01/29 16:14:06;;;;;;;1.90;0.40;;;;;;;;;;5052313;28;20435;-80
2021/01/29 16:16:33;;;;;;;0.50;0.30;;;;;;;;;;5051977;28;20431;-80
2021/01/29 16:19:06;;;;;;;0.50;0.50;;;;;;;;;;5052218;28;20835;-80
2021/01/29 16:21:35;;;;;;;1.03;0.50;;;;;;;;;;5051824;28;20955;-82
2021/01/29 16:24:02;;;;;;;0.87;0.83;;;;;;;;;;5051706;28;20818;-82
2021/01/29 16:26:31;;;;;;;2.47;0.90;;;;;;;;;;5051828;28;20414;-82
2021/01/29 16:32:02;;;;;;;1.30;0.60;;;;;;;;;;5051839;28;20564;-80
2021/01/29 16:34:30;;;;;;;3.20;1.10;;;;;;;;;;5051791;28;20418;-80